Portada
METAR-TAF:

METAR-TAF

Aeroports :

Aeroport Internacional de Dubai

Dubai, Emirats Àrabs Units

latitud: 25-15-10N, longitud: 055-21-52E, altitud: 8 m

Observació

L'informe es va fer fa 34 minuts, a les 05:00 UTC
Vent 2 kt amb direcció variable
Temperatura 24°C
Humitat 65%
Pressió 1019 hPa
Visibilitat 10 km o més
sense núvols per sota de 1500 mi sense presència de cumulonimbus.

METAR: OMDB 020500Z VRB02KT CAVOK 24/17 Q1019 NOSIG

Hora: 09:34 (05:34 UTC)

Pronòstic

L'informe es va fer fa 6 hores i 34 minuts, a les 23:00 UTC
Pronòstic vàlid del 02 a les 00 UTC al 03 a les 06 UTC
Vent 5 kt del Est/Sud-Est
Visibilitat 10 km o més
sense núvols per sota de 1500 mi sense presència de cumulonimbus.
Evolucionant progressivament
l' 02 a les 09 UTC al 02 a les 11 UTC
Vent 10 kt del Nord/Nord-Oest
Evolucionant progressivament
l' 02 a les 17 UTC al 02 a les 19 UTC
Vent 5 kt del Est/Sud-Est

TAF: OMDB 012300Z 0200/0306 12005KT CAVOK BECMG 0209/0211 33010KT BECMG 0217/0219 12005KT

Observacions i pronòstics meteorològics de més de 4000 aeroports (METAR i TAF).

Les estacions disponibles són els punts grocs i vermells al mapa.

Posi el ratolí al punt desitjat per veure el nom de l'estació.

Feu clic per veure les observacions i els pronòstics meteorològics.

Per canviar el mapa: feu clic els botons verds amb una creu de color negre per apropar; al botó verd amb un guió per allunyar la imatge; o en les fletxes verdes per a mapes adjacents.


METAR-TAF: